Chicago, Illinois
Traffic Map
Current Weather Conditions
Chicago, Illinois
Broken Clouds
Broken Clouds
77°
Feels Like: 79°
Wind Chill: 77° Ceiling: 9000
Heat Index: 79° Visibility: 10mi
Dew Point: 60° Wind: 7mph
Humidity: 56% Direction: 290° (WNW)
Pressure: 29.87in Gusts: 0mph
Raw Report DataKMDW 190153Z 29006KT 10SM SCT070 BKN090 25/16 A2987 RMK AO2 SLP105 T02500156
Traffic Incident Summary
Active as of:
Severity:
Category:
InformationThere was an issue retrieving the traffic information for this location. Please try a different location or try again shortly.
Advertisements